createdAt,value
2022-09-21T00:00:41.177Z,75.09
2022-09-21T00:01:41.254Z,74.44
2022-09-21T00:02:41.142Z,76.05
2022-09-21T00:03:41.150Z,76.54
2022-09-21T00:04:41.107Z,76.54
2022-09-21T00:05:41.086Z,77.83
2022-09-21T00:06:41.096Z,72.67
2022-09-21T00:07:41.047Z,73.80
2022-09-21T00:08:41.024Z,75.73
2022-09-21T00:09:41.028Z,75.25
2022-09-21T00:10:40.989Z,76.22
2022-09-21T00:11:40.996Z,75.57
2022-09-21T00:12:40.953Z,75.73
2022-09-21T00:13:40.953Z,74.93
2022-09-21T00:14:41.915Z,77.50
2022-09-21T00:15:40.889Z,77.34
2022-09-21T00:16:40.929Z,73.64
2022-09-21T00:17:40.853Z,75.73
2022-09-21T00:18:40.863Z,74.93
2022-09-21T00:19:40.813Z,76.54
2022-09-21T00:20:40.796Z,76.70
2022-09-21T00:21:40.796Z,77.02
2022-09-21T00:22:40.758Z,78.31
2022-09-21T00:23:40.769Z,78.96
2022-09-21T00:24:40.725Z,73.80
2022-09-21T00:25:40.734Z,77.50
2022-09-21T00:26:40.687Z,77.83
2022-09-21T00:27:40.668Z,75.41
2022-09-21T00:28:40.724Z,76.54
2022-09-21T00:29:40.627Z,78.15
2022-09-21T00:30:40.607Z,76.70
2022-09-21T00:31:40.671Z,75.09
2022-09-21T00:32:40.572Z,79.44
2022-09-21T00:33:40.563Z,75.09
2022-09-21T00:34:40.535Z,78.15
2022-09-21T00:35:40.514Z,77.02
2022-09-21T00:36:40.523Z,76.05
2022-09-21T00:37:40.481Z,73.80
2022-09-21T00:38:40.482Z,76.70
2022-09-21T00:39:40.444Z,76.22
2022-09-21T00:40:40.424Z,76.38
2022-09-21T00:41:40.408Z,76.38
2022-09-21T00:42:40.386Z,77.02
2022-09-21T00:43:40.396Z,78.15
2022-09-21T00:44:40.349Z,78.31
2022-09-21T00:45:40.367Z,79.60
2022-09-21T00:46:40.314Z,74.60
2022-09-21T00:47:40.296Z,76.38
2022-09-21T00:48:40.303Z,77.34
2022-09-21T00:49:40.255Z,77.02
2022-09-21T00:50:40.245Z,77.50
2022-09-21T00:51:40.224Z,74.77
2022-09-21T00:52:40.196Z,78.15
2022-09-21T00:53:41.221Z,76.54
2022-09-21T00:54:40.168Z,75.57
2022-09-21T00:55:40.149Z,72.99
2022-09-21T00:56:40.129Z,77.02
2022-09-21T00:57:40.143Z,75.73
2022-09-21T00:58:40.093Z,76.54
2022-09-21T00:59:40.100Z,76.38
2022-09-21T01:00:40.102Z,76.54
2022-09-21T01:01:40.040Z,77.83
2022-09-21T01:02:40.020Z,76.54
2022-09-21T01:03:40.001Z,75.73
2022-09-21T01:04:40.008Z,76.54
2022-09-21T01:05:39.963Z,77.50
2022-09-21T01:06:39.947Z,76.86
2022-09-21T01:07:39.927Z,76.54
2022-09-21T01:08:39.911Z,74.77
2022-09-21T01:09:39.917Z,77.02
2022-09-21T01:10:39.874Z,77.50
2022-09-21T01:11:39.856Z,76.54
2022-09-21T01:12:39.834Z,76.70
2022-09-21T01:13:39.818Z,78.47
2022-09-21T01:14:39.823Z,77.50
2022-09-21T01:15:39.779Z,75.25
2022-09-21T01:16:39.801Z,76.54
2022-09-21T01:17:39.748Z,76.22
2022-09-21T01:18:39.725Z,77.34
2022-09-21T01:19:39.734Z,78.47
2022-09-21T01:20:39.683Z,75.09
2022-09-21T01:21:39.665Z,74.12
2022-09-21T01:22:39.649Z,77.83
2022-09-21T01:23:39.631Z,77.83
2022-09-21T01:24:39.640Z,77.02
2022-09-21T01:25:39.592Z,76.38
2022-09-21T01:26:39.579Z,78.63
2022-09-21T01:27:39.558Z,76.86
2022-09-21T01:28:39.540Z,77.02
2022-09-21T01:29:39.551Z,77.18
2022-09-21T01:30:39.508Z,77.83
2022-09-21T01:31:39.539Z,79.92
2022-09-21T01:32:39.471Z,76.22
2022-09-21T01:33:39.454Z,76.70
2022-09-21T01:34:39.462Z,79.76
2022-09-21T01:35:39.416Z,77.99
2022-09-21T01:36:40.398Z,75.25
2022-09-21T01:37:39.379Z,77.18
2022-09-21T01:38:39.362Z,74.93
2022-09-21T01:39:39.372Z,77.99
2022-09-21T01:40:39.380Z,76.86
2022-09-21T01:41:39.306Z,76.05
2022-09-21T01:42:39.279Z,76.54
2022-09-21T01:43:39.271Z,76.70
2022-09-21T01:44:39.274Z,76.22
2022-09-21T01:45:39.252Z,75.73
2022-09-21T01:46:39.210Z,77.67
2022-09-21T01:47:39.191Z,75.25
2022-09-21T01:48:39.171Z,73.64
2022-09-21T01:49:39.181Z,74.44
2022-09-21T01:50:39.129Z,75.25
2022-09-21T01:51:39.110Z,77.02
2022-09-21T01:52:39.088Z,77.67
2022-09-21T01:53:39.074Z,77.02
2022-09-21T01:54:39.080Z,77.34
2022-09-21T01:55:39.036Z,76.05
2022-09-21T01:56:39.017Z,77.34
2022-09-21T01:57:38.996Z,75.73
2022-09-21T01:58:38.979Z,77.50
2022-09-21T01:59:38.986Z,76.05
2022-09-21T02:00:38.985Z,76.05
2022-09-21T02:01:39.969Z,77.50
2022-09-21T02:02:38.904Z,80.73
2022-09-21T02:03:38.883Z,76.54
2022-09-21T02:04:38.890Z,77.83
2022-09-21T02:05:38.848Z,78.31
2022-09-21T02:06:38.825Z,76.54
2022-09-21T02:07:38.808Z,78.79
2022-09-21T02:08:38.788Z,76.54
2022-09-21T02:09:38.797Z,78.47
2022-09-21T02:10:38.759Z,78.31
2022-09-21T02:11:38.728Z,77.50
2022-09-21T02:12:38.712Z,76.86
2022-09-21T02:13:38.692Z,78.47
2022-09-21T02:14:38.697Z,78.63
2022-09-21T02:15:38.654Z,78.96
2022-09-21T02:16:38.636Z,75.57
2022-09-21T02:17:38.618Z,77.34
2022-09-21T02:18:38.600Z,78.31
2022-09-21T02:19:38.605Z,77.99
2022-09-21T02:20:38.557Z,76.54
2022-09-21T02:21:38.539Z,78.96
2022-09-21T02:22:38.524Z,78.79
2022-09-21T02:23:38.501Z,77.99
2022-09-21T02:24:38.509Z,78.63
2022-09-21T02:25:38.470Z,79.12
2022-09-21T02:26:38.444Z,78.96
2022-09-21T02:27:38.430Z,79.44
2022-09-21T02:28:38.411Z,77.67
2022-09-21T02:29:38.418Z,79.76
2022-09-21T02:30:38.372Z,78.31
2022-09-21T02:31:38.387Z,78.47
2022-09-21T02:32:38.339Z,78.79
2022-09-21T02:33:38.343Z,78.47
2022-09-21T02:34:38.298Z,77.99
2022-09-21T02:35:38.281Z,77.83
2022-09-21T02:36:38.263Z,78.79
2022-09-21T02:37:38.240Z,78.96
2022-09-21T02:38:38.247Z,78.96
2022-09-21T02:39:38.200Z,77.50
2022-09-21T02:40:38.196Z,77.50
2022-09-21T02:41:38.160Z,78.63
2022-09-21T02:42:38.139Z,80.57
2022-09-21T02:43:38.152Z,77.50
2022-09-21T02:44:38.101Z,77.50
2022-09-21T02:45:38.084Z,75.89
2022-09-21T02:46:38.138Z,77.99
2022-09-21T02:47:38.046Z,78.47
2022-09-21T02:48:38.056Z,78.47
2022-09-21T02:49:38.008Z,78.47
2022-09-21T02:50:38.035Z,80.41
2022-09-21T02:51:37.964Z,78.63
2022-09-21T02:52:37.949Z,78.31
2022-09-21T02:53:37.931Z,78.47
2022-09-21T02:54:37.945Z,76.70
2022-09-21T02:55:37.889Z,78.63
2022-09-21T02:56:37.868Z,81.05
2022-09-21T02:57:37.858Z,79.76
2022-09-21T02:58:37.866Z,80.57
2022-09-21T02:59:37.843Z,78.15
2022-09-21T03:00:37.822Z,79.28
2022-09-21T03:01:37.820Z,77.67
2022-09-21T03:02:37.756Z,76.86
2022-09-21T03:03:37.766Z,78.79
2022-09-21T03:04:37.720Z,79.92
2022-09-21T03:05:37.699Z,77.18
2022-09-21T03:06:37.678Z,77.99
2022-09-21T03:07:37.659Z,77.67
2022-09-21T03:08:37.640Z,78.63
2022-09-21T03:09:37.652Z,78.31
2022-09-21T03:10:37.600Z,78.63
2022-09-21T03:11:37.579Z,77.67
2022-09-21T03:12:37.564Z,79.44
2022-09-21T03:13:37.549Z,77.34
2022-09-21T03:14:37.549Z,79.28
2022-09-21T03:15:37.565Z,77.83
2022-09-21T03:16:37.487Z,81.69
2022-09-21T03:17:37.468Z,79.28
2022-09-21T03:18:37.450Z,80.73
2022-09-21T03:19:37.460Z,79.44
2022-09-21T03:20:37.411Z,79.76
2022-09-21T03:21:41.154Z,80.24
2022-09-21T03:22:38.383Z,79.12
2022-09-21T03:23:37.353Z,77.67
2022-09-21T03:24:37.366Z,77.83
2022-09-21T03:25:37.316Z,78.47
2022-09-21T03:26:37.299Z,77.83
2022-09-21T03:27:37.282Z,77.67
2022-09-21T03:28:37.257Z,79.92
2022-09-21T03:29:37.269Z,79.28
2022-09-21T03:30:37.227Z,78.47
2022-09-21T03:31:37.196Z,78.96
2022-09-21T03:32:37.182Z,78.79
2022-09-21T03:33:37.162Z,81.05
2022-09-21T03:34:37.170Z,80.08
2022-09-21T03:35:37.124Z,78.47
2022-09-21T03:36:37.105Z,79.92
2022-09-21T03:37:41.160Z,76.54
2022-09-21T03:38:38.066Z,79.92
2022-09-21T03:39:37.148Z,78.63
2022-09-21T03:40:37.078Z,78.31
2022-09-21T03:41:37.011Z,79.76
2022-09-21T03:42:36.999Z,78.96
2022-09-21T03:43:36.976Z,79.12
2022-09-21T03:44:36.983Z,79.44
2022-09-21T03:45:36.939Z,79.44
2022-09-21T03:46:36.940Z,78.63
2022-09-21T03:47:37.905Z,81.53
2022-09-21T03:48:36.886Z,79.60
2022-09-21T03:49:36.897Z,80.24
2022-09-21T03:50:36.839Z,79.12
2022-09-21T03:51:37.826Z,77.83
2022-09-21T03:52:36.808Z,78.15
2022-09-21T03:53:36.794Z,79.28
2022-09-21T03:54:36.801Z,78.63
2022-09-21T03:55:36.756Z,79.28
2022-09-21T03:56:36.763Z,78.31
2022-09-21T03:57:36.720Z,79.92
2022-09-21T03:58:36.703Z,80.41
2022-09-21T03:59:36.710Z,77.34
2022-09-21T04:00:36.667Z,78.15
2022-09-21T04:01:36.706Z,77.99
2022-09-21T04:02:36.661Z,78.96
2022-09-21T04:03:36.612Z,77.83
2022-09-21T04:04:36.623Z,79.44
2022-09-21T04:05:36.578Z,80.08
2022-09-21T04:06:36.558Z,78.79
2022-09-21T04:07:36.548Z,78.79
2022-09-21T04:08:36.535Z,78.31
2022-09-21T04:09:36.531Z,80.41
2022-09-21T04:10:36.486Z,78.47
2022-09-21T04:11:36.464Z,77.99
2022-09-21T04:12:36.451Z,77.99
2022-09-21T04:13:36.429Z,80.41
2022-09-21T04:14:36.438Z,78.79
2022-09-21T04:15:36.437Z,79.44
2022-09-21T04:16:36.378Z,79.44
2022-09-21T04:17:36.358Z,80.08
2022-09-21T04:18:36.340Z,78.63
2022-09-21T04:19:36.349Z,78.96
2022-09-21T04:20:36.302Z,80.57
2022-09-21T04:21:36.285Z,77.67
2022-09-21T04:22:38.862Z,78.96
2022-09-21T04:23:37.245Z,79.12
2022-09-21T04:24:36.251Z,78.79
2022-09-21T04:25:36.213Z,77.99
2022-09-21T04:26:36.185Z,78.47
2022-09-21T04:27:36.170Z,77.83
2022-09-21T04:28:36.145Z,80.41
2022-09-21T04:29:36.155Z,79.28
2022-09-21T04:30:37.974Z,78.79
2022-09-21T04:31:37.085Z,81.86
2022-09-21T04:32:36.067Z,80.08
2022-09-21T04:33:36.048Z,79.44
2022-09-21T04:34:36.057Z,80.73
2022-09-21T04:35:36.012Z,80.73
2022-09-21T04:36:36.887Z,78.96
2022-09-21T04:37:36.976Z,78.63
2022-09-21T04:38:35.956Z,77.83
2022-09-21T04:39:35.964Z,80.57
2022-09-21T04:40:35.995Z,80.41
2022-09-21T04:41:35.901Z,81.86
2022-09-21T04:42:35.885Z,80.41
2022-09-21T04:43:35.868Z,79.76
2022-09-21T04:44:35.871Z,79.76
2022-09-21T04:45:35.823Z,79.92
2022-09-21T04:46:35.864Z,80.57
2022-09-21T04:47:35.787Z,80.24
2022-09-21T04:48:35.766Z,81.21
2022-09-21T04:49:35.778Z,79.12
2022-09-21T04:50:35.732Z,79.28
2022-09-21T04:51:35.709Z,79.28
2022-09-21T04:52:35.690Z,80.41
2022-09-21T04:53:35.673Z,79.12
2022-09-21T04:54:35.684Z,80.73
2022-09-21T04:55:35.639Z,80.41
2022-09-21T04:56:35.622Z,80.24
2022-09-21T04:57:35.601Z,77.83
2022-09-21T04:58:35.583Z,79.44
2022-09-21T04:59:35.597Z,79.92
2022-09-21T05:00:35.545Z,79.60
2022-09-21T05:01:35.540Z,80.08
2022-09-21T05:02:35.510Z,79.12
2022-09-21T05:03:35.547Z,79.44
2022-09-21T05:04:35.492Z,80.57
2022-09-21T05:05:35.446Z,79.12
2022-09-21T05:06:35.428Z,79.60
2022-09-21T05:07:35.419Z,79.44
2022-09-21T05:08:35.392Z,79.44
2022-09-21T05:09:35.405Z,79.76
2022-09-21T05:10:35.353Z,80.73
2022-09-21T05:11:35.336Z,80.57
2022-09-21T05:12:38.605Z,80.08
2022-09-21T05:13:36.296Z,79.92
2022-09-21T05:14:35.305Z,79.28
2022-09-21T05:15:35.296Z,80.41
2022-09-21T05:16:35.237Z,80.89
2022-09-21T05:17:35.218Z,78.79
2022-09-21T05:18:35.200Z,78.31
2022-09-21T05:19:35.199Z,78.63
2022-09-21T05:20:36.163Z,79.44
2022-09-21T05:21:35.142Z,79.12
2022-09-21T05:22:35.126Z,78.47
2022-09-21T05:23:35.109Z,81.05
2022-09-21T05:24:35.191Z,80.57
2022-09-21T05:25:35.070Z,79.44
2022-09-21T05:26:35.054Z,79.44
2022-09-21T05:27:35.032Z,80.08
2022-09-21T05:28:39.221Z,80.57
2022-09-21T05:29:37.024Z,79.12
2022-09-21T05:30:35.001Z,80.24
2022-09-21T05:31:35.020Z,79.12
2022-09-21T05:32:34.944Z,79.12
2022-09-21T05:33:34.928Z,80.24
2022-09-21T05:34:36.808Z,79.44
2022-09-21T05:35:35.896Z,78.63
2022-09-21T05:36:34.876Z,77.02
2022-09-21T05:37:34.860Z,79.12
2022-09-21T05:38:34.840Z,78.31
2022-09-21T05:39:34.855Z,78.15
2022-09-21T05:40:34.817Z,77.02
2022-09-21T05:41:34.786Z,77.67
2022-09-21T05:42:34.766Z,78.96
2022-09-21T05:43:34.745Z,78.96
2022-09-21T05:44:34.749Z,78.15
2022-09-21T05:45:34.711Z,78.63
2022-09-21T05:46:34.684Z,77.99
2022-09-21T05:47:34.661Z,77.67
2022-09-21T05:48:34.638Z,80.08
2022-09-21T05:49:34.643Z,77.18
2022-09-21T05:50:34.597Z,77.02
2022-09-21T05:51:34.575Z,78.63
2022-09-21T05:52:34.554Z,79.44
2022-09-21T05:53:34.536Z,77.18
2022-09-21T05:54:34.550Z,77.34
2022-09-21T05:55:34.493Z,77.50
2022-09-21T05:56:34.476Z,77.02
2022-09-21T05:57:34.459Z,77.67
2022-09-21T05:58:34.435Z,76.86
2022-09-21T05:59:34.441Z,77.34
2022-09-21T06:00:34.397Z,76.54
2022-09-21T06:01:34.443Z,78.47
2022-09-21T06:02:34.389Z,75.41
2022-09-21T06:03:34.345Z,76.54
2022-09-21T06:04:34.350Z,76.22
2022-09-21T06:05:34.302Z,78.63
2022-09-21T06:06:34.281Z,77.02
2022-09-21T06:07:34.259Z,76.05
2022-09-21T06:08:34.243Z,76.70
2022-09-21T06:09:34.253Z,77.34
2022-09-21T06:10:34.212Z,76.54
2022-09-21T06:11:34.194Z,75.25
2022-09-21T06:12:34.176Z,76.54
2022-09-21T06:13:34.152Z,77.18
2022-09-21T06:14:34.157Z,77.02
2022-09-21T06:15:34.115Z,77.18
2022-09-21T06:16:34.159Z,76.38
2022-09-21T06:17:34.079Z,76.54
2022-09-21T06:18:34.063Z,75.41
2022-09-21T06:19:34.074Z,75.57
2022-09-21T06:20:34.045Z,75.09
2022-09-21T06:21:34.005Z,75.57
2022-09-21T06:22:33.982Z,75.41
2022-09-21T06:23:33.964Z,75.41
2022-09-21T06:24:33.967Z,76.22
2022-09-21T06:25:33.924Z,75.25
2022-09-21T06:26:33.904Z,75.41
2022-09-21T06:27:33.887Z,75.25
2022-09-21T06:28:33.868Z,74.12
2022-09-21T06:29:33.890Z,74.77
2022-09-21T06:30:33.870Z,74.93
2022-09-21T06:31:33.822Z,72.67
2022-09-21T06:32:33.800Z,74.77
2022-09-21T06:33:33.780Z,73.48
2022-09-21T06:34:33.796Z,75.25
2022-09-21T06:35:33.772Z,74.77
2022-09-21T06:36:33.729Z,73.64
2022-09-21T06:37:33.711Z,75.57
2022-09-21T06:38:33.690Z,73.15
2022-09-21T06:39:33.675Z,75.57
2022-09-21T06:40:33.698Z,75.25
2022-09-21T06:41:33.635Z,73.96
2022-09-21T06:42:33.620Z,74.28
2022-09-21T06:43:33.601Z,74.77
2022-09-21T06:44:33.587Z,75.41
2022-09-21T06:45:33.768Z,74.93
2022-09-21T06:46:33.547Z,74.28
2022-09-21T06:47:33.532Z,74.93
2022-09-21T06:48:33.511Z,75.09
2022-09-21T06:49:33.494Z,74.60
2022-09-21T06:50:33.506Z,73.32
2022-09-21T06:51:33.458Z,71.70
2022-09-21T06:52:33.442Z,73.32
2022-09-21T06:53:33.425Z,73.32
2022-09-21T06:54:33.405Z,73.32
2022-09-21T06:55:33.414Z,73.15
2022-09-21T06:56:33.371Z,74.44
2022-09-21T06:57:33.354Z,75.89
2022-09-21T06:58:33.336Z,74.28
2022-09-21T06:59:33.317Z,73.80
2022-09-21T07:00:33.328Z,73.96
2022-09-21T07:01:33.411Z,73.96
2022-09-21T07:02:33.269Z,74.60
2022-09-21T07:03:33.249Z,74.77
2022-09-21T07:04:33.236Z,72.83
2022-09-21T07:05:33.240Z,73.80
2022-09-21T07:06:33.193Z,73.80
2022-09-21T07:07:33.179Z,73.48
2022-09-21T07:10:35.160Z,82.82
2022-09-21T07:11:33.113Z,86.69
2022-09-21T07:12:33.094Z,73.32
2022-09-21T07:13:33.127Z,74.12
2022-09-21T07:14:33.062Z,74.12
2022-09-21T07:15:33.068Z,74.60
2022-09-21T07:16:33.042Z,73.48
2022-09-21T07:17:33.008Z,73.32
2022-09-21T07:18:42.471Z,73.48
2022-09-21T07:19:34.976Z,74.28
2022-09-21T07:20:32.991Z,73.48
2022-09-21T07:21:32.939Z,74.93
2022-09-21T07:22:32.923Z,73.32
2022-09-21T07:23:32.910Z,72.99
2022-09-21T07:24:32.900Z,72.83
2022-09-21T07:25:32.904Z,73.15
2022-09-21T07:26:32.864Z,72.35
2022-09-21T07:27:32.844Z,73.15
2022-09-21T07:28:32.829Z,73.96
2022-09-21T07:29:32.828Z,73.96
2022-09-21T07:30:32.820Z,72.99
2022-09-21T07:31:32.821Z,74.60
2022-09-21T07:32:32.760Z,72.35
2022-09-21T07:33:35.873Z,73.32
2022-09-21T07:34:33.728Z,72.83
2022-09-21T07:35:32.735Z,74.12
2022-09-21T07:36:32.692Z,72.83
2022-09-21T07:37:32.684Z,74.60
2022-09-21T07:38:32.656Z,74.60
2022-09-21T07:39:32.642Z,71.70
2022-09-21T07:40:32.685Z,72.99
2022-09-21T07:41:32.607Z,73.96
2022-09-21T07:42:32.593Z,74.12
2022-09-21T07:43:32.577Z,73.96
2022-09-21T07:44:32.560Z,73.32
2022-09-21T07:45:32.615Z,73.64
2022-09-21T07:46:32.525Z,71.87
2022-09-21T07:47:32.507Z,73.80
2022-09-21T07:48:32.492Z,74.60
2022-09-21T07:49:32.473Z,72.67
2022-09-21T07:50:32.483Z,74.93
2022-09-21T07:51:32.437Z,74.44
2022-09-21T07:52:32.422Z,74.12
2022-09-21T07:53:32.400Z,74.28
2022-09-21T07:54:32.386Z,73.64
2022-09-21T07:55:32.394Z,72.67
2022-09-21T07:56:32.353Z,72.67
2022-09-21T07:57:32.337Z,72.51
2022-09-21T07:58:32.324Z,73.48
2022-09-21T07:59:32.302Z,72.35
2022-09-21T08:00:32.423Z,72.03
2022-09-21T08:01:32.271Z,72.51
2022-09-21T08:02:32.333Z,72.03
2022-09-21T08:03:33.236Z,72.83
2022-09-21T08:04:32.221Z,72.67
2022-09-21T08:05:32.226Z,73.32
2022-09-21T08:06:32.180Z,70.25
2022-09-21T08:07:32.579Z,73.48
2022-09-21T08:08:32.147Z,71.87
2022-09-21T08:09:32.130Z,73.96
2022-09-21T08:10:32.260Z,72.67
2022-09-21T08:11:32.116Z,72.03
2022-09-21T08:12:32.109Z,73.32
2022-09-21T08:13:32.058Z,72.99
2022-09-21T08:14:32.097Z,72.19
2022-09-21T08:15:48.918Z,74.60
2022-09-21T08:16:34.264Z,73.64
2022-09-21T08:17:31.994Z,72.51
2022-09-21T08:18:31.973Z,75.09
2022-09-21T08:19:31.957Z,75.25
2022-09-21T08:20:31.968Z,72.83
2022-09-21T08:21:31.924Z,73.96
2022-09-21T08:22:31.906Z,72.83
2022-09-21T08:23:31.887Z,74.12
2022-09-21T08:24:31.877Z,75.09
2022-09-21T08:25:31.884Z,74.60
2022-09-21T08:26:31.854Z,75.09
2022-09-21T08:27:31.824Z,74.28
2022-09-21T08:28:31.801Z,74.12
2022-09-21T08:29:31.786Z,87.98
2022-09-21T08:30:31.792Z,80.73
2022-09-21T08:31:31.812Z,80.08
2022-09-21T08:32:49.904Z,78.31
2022-09-21T08:33:33.714Z,90.07
2022-09-21T08:34:31.695Z,82.02
2022-09-21T08:35:31.708Z,79.76
2022-09-21T08:36:31.666Z,85.56
2022-09-21T08:37:31.650Z,75.57
2022-09-21T08:38:31.626Z,75.73
2022-09-21T08:39:31.602Z,76.22
2022-09-21T08:40:31.644Z,75.09
2022-09-21T08:41:31.568Z,75.09
2022-09-21T08:42:31.555Z,74.93
2022-09-21T08:43:31.535Z,75.09
2022-09-21T08:44:31.517Z,76.86
2022-09-21T08:45:31.528Z,74.60
2022-09-21T08:46:31.513Z,77.02
2022-09-21T08:47:31.461Z,74.44
2022-09-21T08:48:36.507Z,74.93
2022-09-21T08:49:33.427Z,76.38
2022-09-21T08:50:31.430Z,75.41
2022-09-21T08:51:31.391Z,85.56
2022-09-21T08:52:31.368Z,75.25
2022-09-21T08:53:31.354Z,75.41
2022-09-21T08:54:31.334Z,73.96
2022-09-21T08:55:31.349Z,75.89
2022-09-21T08:56:53.415Z,75.73
2022-09-21T08:57:33.280Z,76.70
2022-09-21T08:58:31.266Z,81.86
2022-09-21T08:59:31.244Z,75.57
2022-09-21T09:00:31.281Z,82.34
2022-09-21T09:01:31.230Z,75.25
2022-09-21T09:02:31.191Z,76.05
2022-09-21T09:03:31.174Z,78.31
2022-09-21T09:04:31.154Z,78.47
2022-09-21T09:05:31.167Z,76.70
2022-09-21T09:06:31.117Z,78.96
2022-09-21T09:07:31.106Z,79.44
2022-09-21T09:08:31.082Z,78.31
2022-09-21T09:09:31.074Z,76.54
2022-09-21T09:10:31.091Z,75.89
2022-09-21T09:11:31.045Z,80.73
2022-09-21T09:12:31.015Z,76.54
2022-09-21T09:13:31.016Z,79.44
2022-09-21T09:14:31.026Z,77.34
2022-09-21T09:15:30.982Z,76.05
2022-09-21T09:16:30.986Z,80.41
2022-09-21T09:17:30.919Z,81.69
2022-09-21T09:18:30.903Z,82.50
2022-09-21T09:19:30.882Z,82.50
2022-09-21T09:20:30.892Z,81.86
2022-09-21T09:21:32.458Z,82.02
2022-09-21T09:22:31.830Z,81.86
2022-09-21T09:23:30.825Z,81.21
2022-09-21T09:24:30.793Z,81.53
2022-09-21T09:25:30.798Z,81.69
2022-09-21T09:26:30.755Z,81.37
2022-09-21T09:27:30.737Z,82.02
2022-09-21T09:28:30.717Z,82.18
2022-09-21T09:29:30.698Z,77.02
2022-09-21T09:30:30.712Z,77.99
2022-09-21T09:31:30.823Z,83.31
2022-09-21T09:32:30.644Z,82.82
2022-09-21T09:33:30.628Z,83.79
2022-09-21T09:34:30.610Z,83.63
2022-09-21T09:35:30.615Z,77.99
2022-09-21T09:36:56.843Z,77.67
2022-09-21T09:37:32.551Z,76.54
2022-09-21T09:38:30.531Z,75.73
2022-09-21T09:39:30.516Z,76.86
2022-09-21T09:40:30.592Z,77.50
2022-09-21T09:41:30.479Z,75.41
2022-09-21T09:42:30.465Z,74.60
2022-09-21T09:43:30.446Z,76.22
2022-09-21T09:44:30.422Z,77.99
2022-09-21T09:45:30.431Z,76.70
2022-09-21T09:46:30.441Z,74.28
2022-09-21T09:47:30.367Z,76.70
2022-09-21T09:48:30.347Z,75.89
2022-09-21T09:49:30.329Z,82.66
2022-09-21T09:50:30.344Z,86.04
2022-09-21T09:51:30.297Z,87.98
2022-09-21T09:52:30.272Z,81.05
2022-09-21T09:53:30.258Z,79.76
2022-09-21T09:54:30.234Z,82.82
2022-09-21T09:55:30.246Z,82.82
2022-09-21T09:56:30.199Z,78.15
2022-09-21T09:57:30.180Z,78.47
2022-09-21T09:58:30.158Z,76.54
2022-09-21T09:59:30.144Z,76.38
2022-09-21T10:00:30.154Z,77.99
2022-09-21T10:01:30.172Z,76.22
2022-09-21T10:02:30.095Z,76.70
2022-09-21T10:03:30.076Z,75.41
2022-09-21T10:04:30.099Z,77.50
2022-09-21T10:05:30.062Z,76.54
2022-09-21T10:06:30.019Z,86.69
2022-09-21T10:07:29.997Z,75.73
2022-09-21T10:08:29.984Z,76.86
2022-09-21T10:09:29.964Z,89.91
2022-09-21T10:10:29.971Z,89.27
2022-09-21T10:11:29.952Z,76.22
2022-09-21T10:12:29.909Z,77.67
2022-09-21T10:13:29.892Z,75.89
2022-09-21T10:14:29.873Z,76.22
2022-09-21T10:15:29.886Z,76.86
2022-09-21T10:16:29.889Z,77.34
2022-09-21T10:17:29.814Z,77.34
2022-09-21T10:18:29.799Z,76.05
2022-09-21T10:19:29.778Z,76.38
2022-09-21T10:20:29.785Z,77.83
2022-09-21T10:21:29.733Z,77.67
2022-09-21T10:22:30.717Z,76.70
2022-09-21T10:23:29.703Z,77.50
2022-09-21T10:24:29.682Z,75.89
2022-09-21T10:25:29.690Z,78.96
2022-09-21T10:26:29.641Z,75.09
2022-09-21T10:27:29.624Z,75.09
2022-09-21T10:28:29.634Z,77.34
2022-09-21T10:29:29.590Z,76.05
2022-09-21T10:30:29.595Z,77.02
2022-09-21T10:31:29.616Z,76.22
2022-09-21T10:32:29.530Z,74.77
2022-09-21T10:33:29.510Z,77.50
2022-09-21T10:34:29.495Z,77.34
2022-09-21T10:35:29.501Z,78.15
2022-09-21T10:36:29.457Z,77.02
2022-09-21T10:37:29.435Z,75.41
2022-09-21T10:38:29.416Z,77.99
2022-09-21T10:39:29.397Z,76.22
2022-09-21T10:40:29.480Z,78.15
2022-09-21T10:41:29.357Z,77.02
2022-09-21T10:42:29.342Z,77.83
2022-09-21T10:43:31.727Z,76.54
2022-09-21T10:44:29.303Z,76.54
2022-09-21T10:45:29.308Z,79.60
2022-09-21T10:46:29.291Z,77.18
2022-09-21T10:47:29.249Z,77.50
2022-09-21T10:48:29.230Z,76.22
2022-09-21T10:49:29.209Z,75.73
2022-09-21T10:50:29.213Z,75.73
2022-09-21T10:51:29.180Z,78.15
2022-09-21T10:52:29.149Z,77.18
2022-09-21T10:53:29.135Z,77.18
2022-09-21T10:54:29.137Z,77.83
2022-09-21T10:55:29.125Z,76.54
2022-09-21T10:56:29.075Z,77.99
2022-09-21T10:57:29.060Z,77.02
2022-09-21T10:58:29.037Z,76.38
2022-09-21T10:59:29.019Z,76.54
2022-09-21T11:00:29.034Z,76.38
2022-09-21T11:01:29.045Z,77.02
2022-09-21T11:02:29.081Z,76.70
2022-09-21T11:03:28.944Z,77.18
2022-09-21T11:04:28.947Z,79.28
2022-09-21T11:05:28.928Z,77.50
2022-09-21T11:06:28.930Z,76.54
2022-09-21T11:07:28.868Z,76.70
2022-09-21T11:08:28.850Z,76.70
2022-09-21T11:09:28.830Z,77.18
2022-09-21T11:10:32.079Z,77.02
2022-09-21T11:11:30.786Z,77.50
2022-09-21T11:12:28.766Z,77.02
2022-09-21T11:13:28.745Z,76.70
2022-09-21T11:14:28.725Z,77.83
2022-09-21T11:15:28.770Z,77.02
2022-09-21T11:16:28.685Z,77.18
2022-09-21T11:17:28.659Z,77.50
2022-09-21T11:18:28.638Z,78.63
2022-09-21T11:19:28.615Z,78.15
2022-09-21T11:20:28.618Z,78.31
2022-09-21T11:21:28.573Z,79.12
2022-09-21T11:22:28.551Z,77.18
2022-09-21T11:23:28.526Z,77.99
2022-09-21T11:24:29.508Z,76.54
2022-09-21T11:25:28.518Z,77.50
2022-09-21T11:26:28.465Z,77.83
2022-09-21T11:27:28.446Z,77.34
2022-09-21T11:28:28.428Z,77.99
2022-09-21T11:29:28.418Z,77.99
2022-09-21T11:30:28.409Z,78.47
2022-09-21T11:31:28.368Z,76.54
2022-09-21T11:32:28.338Z,77.50
2022-09-21T11:33:28.318Z,78.47
2022-09-21T11:34:28.296Z,77.50
2022-09-21T11:35:28.303Z,77.50
2022-09-21T11:36:28.255Z,77.50
2022-09-21T11:37:28.247Z,76.86
2022-09-21T11:38:33.625Z,76.70
2022-09-21T11:39:30.183Z,78.63
2022-09-21T11:40:28.220Z,76.70
2022-09-21T11:41:28.145Z,78.47
2022-09-21T11:42:28.130Z,77.34
2022-09-21T11:43:28.097Z,76.05
2022-09-21T11:44:28.078Z,79.44
2022-09-21T11:45:28.711Z,74.60
2022-09-21T11:46:28.097Z,77.50
2022-09-21T11:47:28.013Z,76.86
2022-09-21T11:48:27.991Z,80.08
2022-09-21T11:49:27.968Z,78.63
2022-09-21T11:50:31.611Z,77.18
2022-09-21T11:51:28.922Z,77.34
2022-09-21T11:52:27.897Z,77.99
2022-09-21T11:53:27.874Z,77.02
2022-09-21T11:54:27.858Z,77.83
2022-09-21T11:55:27.858Z,76.54
2022-09-21T11:56:27.813Z,78.31
2022-09-21T11:57:27.786Z,78.63
2022-09-21T11:58:27.796Z,77.67
2022-09-21T11:59:27.744Z,76.86
2022-09-21T12:00:27.750Z,77.34
2022-09-21T12:01:27.701Z,76.86
2022-09-21T12:02:27.831Z,77.50
2022-09-21T12:03:27.652Z,77.83
2022-09-21T12:04:27.634Z,75.41
2022-09-21T12:05:27.634Z,77.50
2022-09-21T12:06:27.586Z,77.18
2022-09-21T12:07:27.563Z,76.22
2022-09-21T12:08:27.542Z,77.34
2022-09-21T12:09:27.517Z,76.38
2022-09-21T12:10:27.522Z,76.70
2022-09-21T12:11:27.477Z,77.50
2022-09-21T12:12:27.452Z,76.86
2022-09-21T12:13:27.427Z,77.67
2022-09-21T12:14:27.451Z,76.70
2022-09-21T12:15:27.408Z,76.70
2022-09-21T12:16:27.377Z,77.50
2022-09-21T12:17:27.335Z,77.18
2022-09-21T12:18:27.313Z,76.86
2022-09-21T12:19:27.289Z,77.18
2022-09-21T12:20:27.294Z,76.54
2022-09-21T12:21:27.248Z,77.50
2022-09-21T12:22:27.226Z,77.83
2022-09-21T12:23:27.207Z,76.54
2022-09-21T12:24:31.803Z,77.02
2022-09-21T12:25:29.186Z,77.83
2022-09-21T12:26:27.138Z,77.18
2022-09-21T12:27:27.117Z,78.15
2022-09-21T12:28:27.098Z,76.05
2022-09-21T12:29:27.077Z,77.50
2022-09-21T12:30:27.119Z,77.99
2022-09-21T12:31:27.032Z,76.54
2022-09-21T12:32:27.009Z,75.41
2022-09-21T12:33:26.987Z,77.99
2022-09-21T12:34:26.968Z,75.57
2022-09-21T12:35:26.979Z,75.41
2022-09-21T12:36:26.928Z,77.02
2022-09-21T12:37:26.905Z,75.73
2022-09-21T12:38:26.927Z,78.63
2022-09-21T12:39:26.867Z,76.22
2022-09-21T12:40:26.900Z,77.02
2022-09-21T12:41:26.822Z,76.86
2022-09-21T12:42:26.806Z,76.22
2022-09-21T12:43:26.782Z,76.38
2022-09-21T12:44:26.770Z,76.70
2022-09-21T12:45:26.768Z,77.50
2022-09-21T12:46:26.752Z,77.34
2022-09-21T12:47:26.700Z,77.50
2022-09-21T12:48:26.683Z,76.86
2022-09-21T12:49:26.660Z,77.18
2022-09-21T12:50:26.666Z,76.38
2022-09-21T12:51:26.617Z,77.50
2022-09-21T12:52:26.597Z,75.89
2022-09-21T12:53:26.577Z,77.67
2022-09-21T12:54:26.581Z,76.70